createdAt,value
2018-08-31T00:00:02.145Z,22.40
2018-08-31T00:00:33.909Z,22.40
2018-08-31T00:01:05.688Z,22.30
2018-08-31T00:01:37.489Z,22.30
2018-08-31T00:02:09.414Z,22.30
2018-08-31T00:02:41.234Z,22.30
2018-08-31T00:03:13.043Z,22.30
2018-08-31T00:03:44.901Z,22.30
2018-08-31T00:04:16.776Z,22.20
2018-08-31T00:04:48.706Z,22.30
2018-08-31T00:05:20.633Z,22.20
2018-08-31T00:05:52.513Z,22.20
2018-08-31T00:06:24.366Z,22.20
2018-08-31T00:06:56.266Z,22.20
2018-08-31T00:07:28.139Z,22.20
2018-08-31T00:07:59.986Z,22.20
2018-08-31T00:08:31.767Z,22.20
2018-08-31T00:09:03.589Z,22.20
2018-08-31T00:09:35.424Z,22.20
2018-08-31T00:10:07.269Z,22.20
2018-08-31T00:10:39.195Z,22.20
2018-08-31T00:11:11.120Z,22.20
2018-08-31T00:11:42.987Z,22.10
2018-08-31T00:12:14.846Z,22.20
2018-08-31T00:12:46.707Z,22.20
2018-08-31T00:13:18.501Z,22.20
2018-08-31T00:13:50.422Z,22.20
2018-08-31T00:14:22.323Z,22.20
2018-08-31T00:14:54.117Z,22.20
2018-08-31T00:15:26.048Z,22.10
2018-08-31T00:15:57.998Z,22.10
2018-08-31T00:16:29.802Z,22.10
2018-08-31T00:17:01.684Z,22.10
2018-08-31T00:17:33.464Z,22.10
2018-08-31T00:18:05.329Z,22.10
2018-08-31T00:18:37.205Z,22.10
2018-08-31T00:19:09.004Z,22.10
2018-08-31T00:19:40.796Z,22.10
2018-08-31T00:20:12.711Z,22.10
2018-08-31T00:20:44.519Z,22.10
2018-08-31T00:21:16.313Z,22.10
2018-08-31T00:21:48.132Z,22.10
2018-08-31T00:22:19.930Z,22.10
2018-08-31T00:22:51.780Z,22.10
2018-08-31T00:23:23.661Z,22.20
2018-08-31T00:23:55.429Z,22.20
2018-08-31T00:24:27.360Z,22.10
2018-08-31T00:24:59.139Z,22.10
2018-08-31T00:25:30.911Z,22.10
2018-08-31T00:26:02.729Z,22.20
2018-08-31T00:26:34.519Z,22.10
2018-08-31T00:27:06.311Z,22.10
2018-08-31T00:27:38.112Z,22.10
2018-08-31T00:28:09.917Z,22.10
2018-08-31T00:28:41.684Z,22.10
2018-08-31T00:29:13.512Z,22.10
2018-08-31T00:29:45.312Z,22.10
2018-08-31T00:30:17.126Z,22.00
2018-08-31T00:30:48.935Z,22.00
2018-08-31T00:31:20.823Z,22.00
2018-08-31T00:31:52.624Z,21.90
2018-08-31T00:32:24.545Z,21.90
2018-08-31T00:32:56.414Z,21.90
2018-08-31T00:33:28.339Z,21.90
2018-08-31T00:34:00.143Z,21.90
2018-08-31T00:34:31.952Z,21.90
2018-08-31T00:35:03.803Z,21.90
2018-08-31T00:35:35.638Z,21.90
2018-08-31T00:36:07.522Z,21.90
2018-08-31T00:36:39.315Z,21.90
2018-08-31T00:37:11.242Z,21.90
2018-08-31T00:37:43.156Z,21.90
2018-08-31T00:38:14.970Z,21.90
2018-08-31T00:38:46.792Z,21.90
2018-08-31T00:39:18.621Z,21.90
2018-08-31T00:39:50.422Z,21.90
2018-08-31T00:40:22.283Z,21.90
2018-08-31T00:40:54.084Z,21.90
2018-08-31T00:41:25.963Z,21.80
2018-08-31T00:41:57.751Z,21.80
2018-08-31T00:42:29.620Z,21.80
2018-08-31T00:43:01.434Z,21.80
2018-08-31T00:43:33.259Z,22.10
2018-08-31T00:44:05.108Z,21.80
2018-08-31T00:44:36.919Z,21.80
2018-08-31T00:45:08.780Z,21.80
2018-08-31T00:45:40.587Z,21.80
2018-08-31T00:46:12.481Z,21.80
2018-08-31T00:46:44.369Z,21.70
2018-08-31T00:47:16.148Z,21.70
2018-08-31T00:47:47.998Z,21.70
2018-08-31T00:48:19.805Z,21.80
2018-08-31T00:48:51.827Z,21.80
2018-08-31T00:49:23.636Z,21.80
2018-08-31T00:49:55.519Z,21.70
2018-08-31T00:50:27.386Z,21.70
2018-08-31T00:50:59.225Z,21.70
2018-08-31T00:51:31.225Z,21.80
2018-08-31T00:52:03.059Z,21.70
2018-08-31T00:52:34.892Z,21.80
2018-08-31T00:53:06.727Z,21.70
2018-08-31T00:53:38.545Z,21.70
2018-08-31T00:54:10.403Z,21.70
2018-08-31T00:54:42.225Z,21.70
2018-08-31T00:55:14.062Z,21.70
2018-08-31T00:55:45.819Z,21.70
2018-08-31T00:56:17.685Z,21.70
2018-08-31T00:56:49.494Z,21.70
2018-08-31T00:57:21.339Z,21.70
2018-08-31T00:57:53.246Z,21.70
2018-08-31T00:58:25.111Z,21.70
2018-08-31T00:58:57.006Z,21.70
2018-08-31T00:59:28.852Z,21.70
2018-08-31T01:00:00.779Z,21.70
2018-08-31T01:00:32.661Z,21.70
2018-08-31T01:01:04.440Z,21.70
2018-08-31T01:01:36.530Z,21.70
2018-08-31T01:02:08.365Z,21.70
2018-08-31T01:02:40.304Z,21.70
2018-08-31T01:03:12.135Z,21.70
2018-08-31T01:03:44.056Z,21.70
2018-08-31T01:04:15.925Z,21.80
2018-08-31T01:04:47.735Z,21.80
2018-08-31T01:05:19.584Z,21.80
2018-08-31T01:06:29.555Z,21.80
2018-08-31T01:07:01.536Z,21.80
2018-08-31T01:07:33.324Z,21.70
2018-08-31T01:08:05.205Z,21.80
2018-08-31T01:08:37.060Z,21.70
2018-08-31T01:09:08.854Z,21.80
2018-08-31T01:09:40.644Z,21.80
2018-08-31T01:10:12.458Z,21.80
2018-08-31T01:10:44.327Z,21.80
2018-08-31T01:11:16.200Z,21.80
2018-08-31T01:11:48.281Z,21.80
2018-08-31T01:12:20.053Z,21.80
2018-08-31T01:12:51.893Z,21.90
2018-08-31T01:13:23.725Z,21.90
2018-08-31T01:13:55.606Z,21.80
2018-08-31T01:14:27.426Z,21.80
2018-08-31T01:14:59.277Z,21.80
2018-08-31T01:15:31.306Z,21.70
2018-08-31T01:16:03.064Z,21.80
2018-08-31T01:16:34.816Z,21.70
2018-08-31T01:17:06.686Z,21.70
2018-08-31T01:17:38.587Z,21.70
2018-08-31T01:18:10.378Z,21.70
2018-08-31T01:18:42.258Z,21.70
2018-08-31T01:19:14.194Z,21.70
2018-08-31T01:19:45.960Z,21.70
2018-08-31T01:20:17.837Z,21.70
2018-08-31T01:20:49.645Z,21.70
2018-08-31T01:21:21.484Z,21.60
2018-08-31T01:21:53.405Z,21.60
2018-08-31T01:22:25.211Z,21.60
2018-08-31T01:22:57.085Z,21.70
2018-08-31T01:23:28.893Z,21.70
2018-08-31T01:24:00.886Z,21.70
2018-08-31T01:24:32.655Z,21.70
2018-08-31T01:25:04.494Z,21.70
2018-08-31T01:25:36.345Z,21.70
2018-08-31T01:26:08.238Z,21.80
2018-08-31T01:26:40.082Z,21.80
2018-08-31T01:27:11.970Z,21.80
2018-08-31T01:27:43.777Z,21.80
2018-08-31T01:28:15.692Z,21.80
2018-08-31T01:28:47.595Z,21.80
2018-08-31T01:29:19.394Z,21.80
2018-08-31T01:29:51.233Z,21.80
2018-08-31T01:30:23.045Z,21.80
2018-08-31T01:30:54.881Z,21.80
2018-08-31T01:31:26.661Z,21.80
2018-08-31T01:31:58.526Z,21.80
2018-08-31T01:32:30.349Z,21.80
2018-08-31T01:33:02.153Z,21.80
2018-08-31T01:33:33.998Z,21.80
2018-08-31T01:34:05.817Z,21.80
2018-08-31T01:34:37.773Z,21.80
2018-08-31T01:35:09.644Z,21.80
2018-08-31T01:35:41.575Z,21.80
2018-08-31T01:36:13.358Z,21.80
2018-08-31T01:36:45.190Z,21.80
2018-08-31T01:37:17.133Z,21.80
2018-08-31T01:37:48.894Z,21.80
2018-08-31T01:38:20.707Z,21.90
2018-08-31T01:38:52.502Z,21.80
2018-08-31T01:39:24.394Z,21.80
2018-08-31T01:39:56.199Z,21.80
2018-08-31T01:40:28.069Z,21.70
2018-08-31T01:40:59.904Z,21.70
2018-08-31T01:41:31.748Z,21.80
2018-08-31T01:42:03.536Z,21.80
2018-08-31T01:42:35.379Z,21.80
2018-08-31T01:43:07.257Z,21.70
2018-08-31T01:43:39.186Z,21.80
2018-08-31T01:44:10.994Z,21.70
2018-08-31T01:44:42.770Z,21.70
2018-08-31T01:45:14.615Z,21.70
2018-08-31T01:45:46.395Z,21.70
2018-08-31T01:46:18.294Z,21.70
2018-08-31T01:46:50.116Z,21.70
2018-08-31T01:47:21.903Z,21.70
2018-08-31T01:47:53.700Z,21.60
2018-08-31T01:48:25.583Z,21.60
2018-08-31T01:48:57.346Z,21.50
2018-08-31T01:49:29.173Z,21.50
2018-08-31T01:50:00.957Z,21.50
2018-08-31T01:50:32.778Z,21.50
2018-08-31T01:51:04.583Z,21.40
2018-08-31T01:51:36.374Z,21.40
2018-08-31T01:52:08.213Z,21.40
2018-08-31T01:52:40.155Z,21.40
2018-08-31T01:53:12.023Z,21.40
2018-08-31T01:53:43.827Z,21.40
2018-08-31T01:54:15.713Z,21.40
2018-08-31T01:54:47.724Z,21.40
2018-08-31T01:55:19.603Z,21.30
2018-08-31T01:55:51.392Z,21.30
2018-08-31T01:56:23.176Z,21.30
2018-08-31T01:56:55.043Z,21.30
2018-08-31T01:57:27.094Z,21.30
2018-08-31T01:57:58.883Z,21.20
2018-08-31T01:58:30.714Z,21.20
2018-08-31T01:59:02.552Z,21.20
2018-08-31T01:59:34.459Z,21.10
2018-08-31T02:00:06.282Z,21.00
2018-08-31T02:00:38.181Z,21.00
2018-08-31T02:01:10.012Z,21.00
2018-08-31T02:01:41.805Z,21.00
2018-08-31T02:02:13.624Z,21.00
2018-08-31T02:02:45.522Z,21.00
2018-08-31T02:03:17.322Z,21.00
2018-08-31T02:03:49.128Z,21.00
2018-08-31T02:04:20.923Z,21.00
2018-08-31T02:04:52.717Z,21.00
2018-08-31T02:05:24.584Z,21.00
2018-08-31T02:05:56.423Z,21.00
2018-08-31T02:06:28.251Z,21.00
2018-08-31T02:07:00.056Z,21.00
2018-08-31T02:07:31.987Z,21.00
2018-08-31T02:08:03.793Z,21.00
2018-08-31T02:08:35.584Z,20.90
2018-08-31T02:09:07.425Z,21.00
2018-08-31T02:09:39.229Z,21.00
2018-08-31T02:10:11.124Z,21.00
2018-08-31T02:10:42.955Z,21.00
2018-08-31T02:11:14.856Z,21.10
2018-08-31T02:11:46.631Z,21.10
2018-08-31T02:12:18.398Z,21.20
2018-08-31T02:12:50.215Z,21.20
2018-08-31T02:13:22.134Z,21.30
2018-08-31T02:13:53.972Z,21.20
2018-08-31T02:14:25.826Z,21.20
2018-08-31T02:14:57.731Z,21.20
2018-08-31T02:15:29.657Z,21.20
2018-08-31T02:16:01.549Z,21.20
2018-08-31T02:16:33.344Z,21.10
2018-08-31T02:17:05.167Z,21.10
2018-08-31T02:17:37.165Z,21.20
2018-08-31T02:18:08.979Z,21.10
2018-08-31T02:18:40.859Z,21.10
2018-08-31T02:19:12.690Z,21.10
2018-08-31T02:19:44.588Z,21.10
2018-08-31T02:20:16.439Z,21.00
2018-08-31T02:20:48.284Z,21.00
2018-08-31T02:21:20.163Z,21.00
2018-08-31T02:21:51.969Z,21.00
2018-08-31T02:22:23.746Z,21.10
2018-08-31T02:22:55.607Z,21.00
2018-08-31T02:23:27.430Z,21.10
2018-08-31T02:23:59.196Z,21.20
2018-08-31T02:24:30.986Z,21.10
2018-08-31T02:25:02.847Z,21.20
2018-08-31T02:25:34.731Z,21.20
2018-08-31T02:26:06.554Z,21.30
2018-08-31T02:26:38.376Z,21.30
2018-08-31T02:27:10.232Z,21.40
2018-08-31T02:27:42.148Z,21.40
2018-08-31T02:28:14.007Z,21.40
2018-08-31T02:28:45.828Z,21.50
2018-08-31T02:29:17.696Z,21.50
2018-08-31T02:29:49.558Z,21.50
2018-08-31T02:30:21.328Z,21.50
2018-08-31T02:30:53.206Z,21.50
2018-08-31T02:31:25.039Z,21.50
2018-08-31T02:31:56.936Z,21.50
2018-08-31T02:32:28.777Z,21.50
2018-08-31T02:33:00.598Z,21.40
2018-08-31T02:33:32.516Z,21.40
2018-08-31T02:34:04.338Z,21.40
2018-08-31T02:34:36.138Z,21.40
2018-08-31T02:35:07.977Z,21.40
2018-08-31T02:35:39.853Z,21.40
2018-08-31T02:36:11.685Z,21.40
2018-08-31T02:36:43.638Z,21.30
2018-08-31T02:37:15.508Z,21.30
2018-08-31T02:37:47.538Z,21.30
2018-08-31T02:38:19.380Z,21.30
2018-08-31T02:38:51.271Z,21.30
2018-08-31T02:40:01.198Z,21.30
2018-08-31T02:40:33.097Z,21.30
2018-08-31T02:41:04.996Z,21.30
2018-08-31T02:41:36.859Z,21.30
2018-08-31T02:42:08.672Z,21.30
2018-08-31T02:42:40.619Z,21.30
2018-08-31T02:43:12.477Z,21.30
2018-08-31T02:43:44.258Z,21.30
2018-08-31T02:44:16.069Z,21.30
2018-08-31T02:44:47.997Z,21.30
2018-08-31T02:45:19.848Z,21.20
2018-08-31T02:45:51.713Z,21.20
2018-08-31T02:46:23.750Z,21.20
2018-08-31T02:46:55.559Z,21.30
2018-08-31T02:47:27.440Z,21.30
2018-08-31T02:47:59.248Z,21.20
2018-08-31T02:48:31.127Z,21.30
2018-08-31T02:49:02.930Z,21.30
2018-08-31T02:49:34.755Z,21.30
2018-08-31T02:50:06.580Z,21.30
2018-08-31T02:50:38.440Z,21.30
2018-08-31T02:51:10.267Z,21.30
2018-08-31T02:51:42.060Z,21.30
2018-08-31T02:52:13.971Z,21.30
2018-08-31T02:52:45.743Z,21.30
2018-08-31T02:53:17.570Z,21.30
2018-08-31T02:53:49.369Z,21.40
2018-08-31T02:54:21.153Z,21.40
2018-08-31T02:54:52.952Z,21.40
2018-08-31T02:55:24.719Z,21.40
2018-08-31T02:55:56.500Z,21.50
2018-08-31T02:56:28.282Z,21.50
2018-08-31T02:57:00.072Z,21.50
2018-08-31T02:57:31.855Z,21.50
2018-08-31T02:58:03.755Z,21.40
2018-08-31T02:58:35.596Z,21.40
2018-08-31T02:59:07.380Z,21.40
2018-08-31T02:59:39.209Z,21.30
2018-08-31T03:00:10.986Z,21.30
2018-08-31T03:00:42.909Z,21.30
2018-08-31T03:01:14.774Z,21.30
2018-08-31T03:01:46.568Z,21.30
2018-08-31T03:02:18.429Z,21.30
2018-08-31T03:02:50.326Z,21.30
2018-08-31T03:03:22.220Z,21.30
2018-08-31T03:03:54.052Z,21.20
2018-08-31T03:04:25.836Z,21.30
2018-08-31T03:04:57.713Z,21.20
2018-08-31T03:05:29.541Z,21.20
2018-08-31T03:06:01.320Z,21.20
2018-08-31T03:06:33.109Z,21.20
2018-08-31T03:07:05.030Z,21.20
2018-08-31T03:07:36.910Z,21.20
2018-08-31T03:08:08.760Z,21.20
2018-08-31T03:08:40.631Z,21.20
2018-08-31T03:09:12.540Z,21.20
2018-08-31T03:09:44.421Z,21.10
2018-08-31T03:10:16.251Z,21.10
2018-08-31T03:10:48.076Z,21.10
2018-08-31T03:11:19.892Z,21.10
2018-08-31T03:11:51.689Z,21.10
2018-08-31T03:12:23.481Z,21.10
2018-08-31T03:12:55.290Z,21.10
2018-08-31T03:13:27.233Z,21.10
2018-08-31T03:13:59.170Z,21.10
2018-08-31T03:14:30.960Z,21.00
2018-08-31T03:15:02.775Z,21.00
2018-08-31T03:15:34.560Z,21.00
2018-08-31T03:16:06.413Z,21.10
2018-08-31T03:16:38.269Z,21.00
2018-08-31T03:17:10.090Z,21.00
2018-08-31T03:17:41.983Z,21.00
2018-08-31T03:18:13.796Z,21.10
2018-08-31T03:18:45.598Z,21.00
2018-08-31T03:19:17.480Z,21.00
2018-08-31T03:19:49.260Z,21.00
2018-08-31T03:20:21.112Z,21.10
2018-08-31T03:20:52.972Z,21.10
2018-08-31T03:21:24.859Z,21.20
2018-08-31T03:21:56.743Z,21.10
2018-08-31T03:22:28.590Z,21.10
2018-08-31T03:23:00.366Z,21.10
2018-08-31T03:23:32.272Z,21.10
2018-08-31T03:24:04.111Z,21.10
2018-08-31T03:24:35.932Z,21.20
2018-08-31T03:25:07.769Z,21.20
2018-08-31T03:25:39.548Z,21.20
2018-08-31T03:26:11.331Z,21.20
2018-08-31T03:26:43.136Z,21.20
2018-08-31T03:27:15.061Z,21.20
2018-08-31T03:27:46.849Z,21.20
2018-08-31T03:28:18.650Z,21.20
2018-08-31T03:28:50.438Z,21.20
2018-08-31T03:29:22.269Z,21.20
2018-08-31T03:29:54.140Z,21.20
2018-08-31T03:30:26.006Z,21.20
2018-08-31T03:30:57.819Z,21.10
2018-08-31T03:31:29.658Z,21.10
2018-08-31T03:32:01.467Z,21.10
2018-08-31T03:32:33.294Z,21.00
2018-08-31T03:33:05.122Z,21.00
2018-08-31T03:33:37.017Z,21.00
2018-08-31T03:34:08.911Z,21.00
2018-08-31T03:34:40.726Z,21.00
2018-08-31T03:35:12.510Z,21.00
2018-08-31T03:35:44.320Z,21.00
2018-08-31T03:36:16.123Z,21.00
2018-08-31T03:36:48.038Z,21.00
2018-08-31T03:37:19.915Z,21.00
2018-08-31T03:37:51.769Z,21.00
2018-08-31T03:38:23.614Z,21.00
2018-08-31T03:38:55.479Z,21.00
2018-08-31T03:39:27.388Z,21.00
2018-08-31T03:39:59.208Z,21.10
2018-08-31T03:40:31.129Z,21.10
2018-08-31T03:41:02.928Z,21.10
2018-08-31T03:41:34.789Z,21.20
2018-08-31T03:42:06.623Z,21.20
2018-08-31T03:42:38.508Z,21.20
2018-08-31T03:43:10.385Z,21.20
2018-08-31T03:43:42.404Z,21.20
2018-08-31T03:44:14.230Z,21.20
2018-08-31T03:44:46.101Z,21.20
2018-08-31T03:45:17.879Z,21.20
2018-08-31T03:45:49.689Z,21.10
2018-08-31T03:46:21.519Z,21.10
2018-08-31T03:46:53.402Z,21.00
2018-08-31T03:47:25.209Z,21.00
2018-08-31T03:47:57.012Z,20.90
2018-08-31T03:48:28.813Z,20.80
2018-08-31T03:49:00.714Z,20.90
2018-08-31T03:49:32.596Z,20.90
2018-08-31T03:50:04.439Z,20.90
2018-08-31T03:50:36.283Z,20.90
2018-08-31T03:51:08.099Z,21.00
2018-08-31T03:51:39.907Z,21.00
2018-08-31T03:52:11.722Z,21.00
2018-08-31T03:52:43.644Z,21.10
2018-08-31T03:53:15.489Z,21.10
2018-08-31T03:53:47.372Z,21.10
2018-08-31T03:54:19.219Z,21.10
2018-08-31T03:54:51.040Z,21.10
2018-08-31T03:55:22.869Z,21.10
2018-08-31T03:55:54.709Z,21.10
2018-08-31T03:56:26.501Z,21.10
2018-08-31T03:56:58.296Z,21.10
2018-08-31T03:57:30.220Z,21.10
2018-08-31T03:58:02.042Z,21.10
2018-08-31T03:58:33.989Z,21.10
2018-08-31T03:59:05.838Z,21.00
2018-08-31T03:59:37.709Z,21.00
2018-08-31T04:00:09.525Z,21.00
2018-08-31T04:00:41.358Z,21.00
2018-08-31T04:01:13.217Z,21.00
2018-08-31T04:01:45.128Z,20.90
2018-08-31T04:02:16.968Z,20.90
2018-08-31T04:02:48.814Z,20.90
2018-08-31T04:03:20.702Z,20.80
2018-08-31T04:03:52.534Z,20.80
2018-08-31T04:04:24.320Z,20.70
2018-08-31T04:04:56.158Z,20.80
2018-08-31T04:05:28.109Z,20.80
2018-08-31T04:05:59.947Z,20.80
2018-08-31T04:06:31.768Z,20.80
2018-08-31T04:07:03.608Z,20.80
2018-08-31T04:07:35.409Z,20.80
2018-08-31T04:08:07.173Z,20.90
2018-08-31T04:08:38.997Z,20.90
2018-08-31T04:09:10.836Z,20.90
2018-08-31T04:09:42.649Z,20.90
2018-08-31T04:10:14.482Z,20.90
2018-08-31T04:10:46.388Z,21.00
2018-08-31T04:11:18.168Z,20.90
2018-08-31T04:11:50.004Z,21.00
2018-08-31T04:12:21.837Z,20.90
2018-08-31T04:12:53.606Z,20.90
2018-08-31T04:13:25.412Z,20.80
2018-08-31T04:13:57.217Z,20.80
2018-08-31T04:14:29.028Z,20.80
2018-08-31T04:15:00.969Z,20.70
2018-08-31T04:15:32.668Z,20.70
2018-08-31T04:16:04.552Z,20.70
2018-08-31T04:16:36.337Z,20.70
2018-08-31T04:17:08.200Z,20.70
2018-08-31T04:17:40.020Z,20.70
2018-08-31T04:18:11.861Z,20.70
2018-08-31T04:18:43.679Z,20.70
2018-08-31T04:19:15.579Z,20.70
2018-08-31T04:19:47.331Z,20.70
2018-08-31T04:20:19.132Z,20.80
2018-08-31T04:20:50.961Z,20.70
2018-08-31T04:21:22.954Z,20.70
2018-08-31T04:21:54.882Z,20.80
2018-08-31T04:22:26.717Z,20.80
2018-08-31T04:22:58.619Z,20.80
2018-08-31T04:23:30.430Z,20.80
2018-08-31T04:24:02.222Z,20.80
2018-08-31T04:24:34.177Z,20.80
2018-08-31T04:25:06.079Z,20.80
2018-08-31T04:25:37.915Z,20.80
2018-08-31T04:26:09.818Z,20.80
2018-08-31T04:26:41.770Z,20.80
2018-08-31T04:27:13.636Z,20.80
2018-08-31T04:27:45.677Z,20.80
2018-08-31T04:28:17.562Z,20.80
2018-08-31T04:28:49.408Z,20.80
2018-08-31T04:29:21.264Z,20.80
2018-08-31T04:29:53.081Z,20.90
2018-08-31T04:30:24.925Z,20.90
2018-08-31T04:30:56.763Z,20.90
2018-08-31T04:31:28.616Z,21.00
2018-08-31T04:32:00.462Z,20.90
2018-08-31T04:32:32.312Z,20.90
2018-08-31T04:33:04.174Z,20.90
2018-08-31T04:33:36.012Z,20.90
2018-08-31T04:34:07.812Z,20.90
2018-08-31T04:34:39.672Z,20.90
2018-08-31T04:35:11.426Z,20.90
2018-08-31T04:35:43.297Z,20.80
2018-08-31T04:36:15.135Z,20.80
2018-08-31T04:36:46.963Z,20.80
2018-08-31T04:37:18.799Z,20.80
2018-08-31T04:37:50.630Z,20.70
2018-08-31T04:38:22.471Z,20.70
2018-08-31T04:38:54.287Z,20.70
2018-08-31T04:39:26.128Z,20.60
2018-08-31T04:39:58.027Z,20.60
2018-08-31T04:40:29.870Z,20.60
2018-08-31T04:41:01.748Z,20.70
2018-08-31T04:41:33.558Z,20.60
2018-08-31T04:42:05.349Z,20.60
2018-08-31T04:42:37.265Z,20.60
2018-08-31T04:43:09.058Z,20.60
2018-08-31T04:43:40.910Z,20.60
2018-08-31T04:44:12.693Z,20.50
2018-08-31T04:44:44.470Z,20.60
2018-08-31T04:45:16.338Z,20.50
2018-08-31T04:45:48.218Z,20.50
2018-08-31T04:46:19.980Z,20.50
2018-08-31T04:46:51.825Z,20.50
2018-08-31T04:47:23.658Z,20.50
2018-08-31T04:47:55.488Z,20.50
2018-08-31T04:48:27.349Z,20.60
2018-08-31T04:48:59.176Z,20.60
2018-08-31T04:49:30.965Z,20.60
2018-08-31T04:50:02.870Z,20.60
2018-08-31T04:50:34.846Z,20.60
2018-08-31T04:51:06.621Z,20.60
2018-08-31T04:51:38.419Z,20.70
2018-08-31T04:52:10.206Z,20.70
2018-08-31T04:52:42.063Z,20.70
2018-08-31T04:53:13.897Z,20.80
2018-08-31T04:53:45.737Z,20.80
2018-08-31T04:54:17.568Z,20.80
2018-08-31T04:54:49.450Z,20.80
2018-08-31T04:55:21.388Z,20.80
2018-08-31T04:55:53.328Z,20.90
2018-08-31T04:56:25.132Z,20.90
2018-08-31T04:56:56.921Z,20.90
2018-08-31T04:57:28.740Z,21.00
2018-08-31T04:58:00.608Z,21.00
2018-08-31T04:58:32.380Z,20.90
2018-08-31T04:59:04.142Z,20.90
2018-08-31T04:59:35.977Z,20.80
2018-08-31T05:00:07.866Z,20.80
2018-08-31T05:00:39.688Z,20.80
2018-08-31T05:01:11.585Z,20.70
2018-08-31T05:01:43.370Z,20.70
2018-08-31T05:02:15.331Z,20.60
2018-08-31T05:02:47.296Z,20.60
2018-08-31T05:03:19.177Z,20.50
2018-08-31T05:03:51.068Z,20.50
2018-08-31T05:04:22.965Z,20.50
2018-08-31T05:04:54.815Z,20.50
2018-08-31T05:05:26.684Z,20.50
2018-08-31T05:05:58.666Z,20.50
2018-08-31T05:06:30.479Z,20.50
2018-08-31T05:07:02.280Z,20.50
2018-08-31T05:07:34.122Z,20.50
2018-08-31T05:08:05.997Z,20.50
2018-08-31T05:08:37.793Z,20.50
2018-08-31T05:09:09.567Z,20.50
2018-08-31T05:09:41.421Z,20.60
2018-08-31T05:10:13.180Z,20.60
2018-08-31T05:10:44.975Z,20.60
2018-08-31T05:11:16.752Z,20.70
2018-08-31T05:11:48.580Z,20.70
2018-08-31T05:12:20.499Z,20.70
2018-08-31T05:12:52.301Z,20.80
2018-08-31T05:13:24.155Z,20.80
2018-08-31T05:13:56.066Z,20.80
2018-08-31T05:14:27.989Z,20.80
2018-08-31T05:14:59.737Z,20.90
2018-08-31T05:15:31.549Z,20.90
2018-08-31T05:16:03.443Z,20.80
2018-08-31T05:16:35.186Z,20.80
2018-08-31T05:17:07.065Z,20.80
2018-08-31T05:17:38.855Z,20.70
2018-08-31T05:18:10.646Z,20.60
2018-08-31T05:18:42.525Z,20.60
2018-08-31T05:19:14.317Z,20.60
2018-08-31T05:19:46.106Z,20.60
2018-08-31T05:20:17.987Z,20.60
2018-08-31T05:20:49.893Z,20.60
2018-08-31T05:21:21.749Z,20.60
2018-08-31T05:21:53.589Z,20.60
2018-08-31T05:22:25.492Z,20.60
2018-08-31T05:22:57.365Z,20.60
2018-08-31T05:23:29.205Z,20.60
2018-08-31T05:24:01.138Z,20.50
2018-08-31T05:24:32.955Z,20.50
2018-08-31T05:25:04.795Z,20.50
2018-08-31T05:25:36.678Z,20.50
2018-08-31T05:26:08.666Z,20.50
2018-08-31T05:26:40.518Z,20.40
2018-08-31T05:27:12.355Z,20.40
2018-08-31T05:27:44.190Z,20.40
2018-08-31T05:28:16.157Z,20.30
2018-08-31T05:28:47.991Z,20.30
2018-08-31T05:29:19.784Z,20.30
2018-08-31T05:29:51.650Z,20.30
2018-08-31T05:30:23.503Z,20.40
2018-08-31T05:30:55.327Z,20.40
2018-08-31T05:31:27.175Z,20.40
2018-08-31T05:31:59.020Z,20.40
2018-08-31T05:32:30.811Z,20.30
2018-08-31T05:33:02.598Z,20.30
2018-08-31T05:33:34.450Z,20.30
2018-08-31T05:34:06.250Z,20.30
2018-08-31T05:34:38.036Z,20.30
2018-08-31T05:35:09.844Z,20.40
2018-08-31T05:35:41.677Z,20.30
2018-08-31T05:36:13.530Z,20.40
2018-08-31T05:36:45.345Z,20.40
2018-08-31T05:37:17.142Z,20.30
2018-08-31T05:37:48.962Z,20.30
2018-08-31T05:38:20.920Z,20.30
2018-08-31T05:38:52.755Z,20.30
2018-08-31T05:39:24.570Z,20.30
2018-08-31T05:39:56.401Z,20.40
2018-08-31T05:40:28.232Z,20.40
2018-08-31T05:41:00.109Z,20.30
2018-08-31T05:41:31.899Z,20.30
2018-08-31T05:42:03.731Z,20.30
2018-08-31T05:42:35.601Z,20.40
2018-08-31T05:43:07.508Z,20.30
2018-08-31T05:43:39.385Z,20.40
2018-08-31T05:44:11.198Z,20.30
2018-08-31T05:44:43.097Z,20.30
2018-08-31T05:45:14.913Z,20.30
2018-08-31T05:45:46.876Z,20.30
2018-08-31T05:46:18.760Z,20.30
2018-08-31T05:46:50.579Z,20.40
2018-08-31T05:47:22.420Z,20.40
2018-08-31T05:47:54.264Z,20.30
2018-08-31T05:48:26.014Z,20.40
2018-08-31T05:48:57.800Z,20.40
2018-08-31T05:49:29.640Z,20.40
2018-08-31T05:50:01.453Z,20.40
2018-08-31T05:50:33.221Z,20.40
2018-08-31T05:51:05.066Z,20.30
2018-08-31T05:51:36.908Z,20.30
2018-08-31T05:52:08.801Z,20.30
2018-08-31T05:52:40.616Z,20.30
2018-08-31T05:53:12.466Z,20.30
2018-08-31T05:53:44.323Z,20.30
2018-08-31T05:54:16.178Z,20.30
2018-08-31T05:54:48.037Z,20.30
2018-08-31T05:55:19.816Z,20.20
2018-08-31T05:55:51.607Z,20.20
2018-08-31T05:56:23.441Z,20.20
2018-08-31T05:56:55.281Z,20.10
2018-08-31T05:57:27.122Z,20.20
2018-08-31T05:57:58.882Z,20.20
2018-08-31T05:58:30.814Z,20.20
2018-08-31T05:59:02.717Z,20.20
2018-08-31T05:59:34.487Z,20.20
2018-08-31T06:00:06.338Z,20.30
2018-08-31T06:00:38.115Z,20.30
2018-08-31T06:01:10.070Z,20.30
2018-08-31T06:01:41.880Z,20.40
2018-08-31T06:02:13.837Z,20.40
2018-08-31T06:02:45.679Z,20.30
2018-08-31T06:03:17.459Z,20.40
2018-08-31T06:03:49.309Z,20.40
2018-08-31T06:04:21.148Z,20.50
2018-08-31T06:04:53.061Z,20.50
2018-08-31T06:05:24.898Z,20.50
2018-08-31T06:05:56.795Z,20.50
2018-08-31T06:06:28.569Z,20.50
2018-08-31T06:07:00.491Z,20.60
2018-08-31T06:07:32.280Z,20.60
2018-08-31T06:08:04.140Z,20.60
2018-08-31T06:08:35.998Z,20.60
2018-08-31T06:09:07.869Z,20.60
2018-08-31T06:09:39.698Z,20.60
2018-08-31T06:10:11.609Z,20.60
2018-08-31T06:10:43.500Z,20.70
2018-08-31T06:11:15.396Z,20.60
2018-08-31T06:11:47.203Z,20.50
2018-08-31T06:12:18.991Z,20.60
2018-08-31T06:12:50.889Z,20.60
2018-08-31T06:13:22.701Z,20.60
2018-08-31T06:13:54.560Z,20.60
2018-08-31T06:14:26.405Z,20.60
2018-08-31T06:14:58.270Z,20.70
2018-08-31T06:15:30.251Z,20.70
2018-08-31T06:16:02.009Z,20.80
2018-08-31T06:16:33.772Z,20.80
2018-08-31T06:17:05.629Z,20.90
2018-08-31T06:17:37.459Z,20.90
2018-08-31T06:18:09.300Z,20.90
2018-08-31T06:18:41.091Z,20.90
2018-08-31T06:19:12.925Z,20.90
2018-08-31T06:19:44.734Z,20.90
2018-08-31T06:20:16.581Z,20.90
2018-08-31T06:20:48.488Z,20.80
2018-08-31T06:21:20.294Z,20.80
2018-08-31T06:21:52.420Z,20.80
2018-08-31T06:22:24.368Z,20.80
2018-08-31T06:22:56.133Z,20.80
2018-08-31T06:23:28.062Z,20.60
2018-08-31T06:23:59.918Z,20.60
2018-08-31T06:24:31.779Z,20.50
2018-08-31T06:25:03.624Z,20.50
2018-08-31T06:25:35.545Z,20.40
2018-08-31T06:26:07.342Z,20.30
2018-08-31T06:26:39.189Z,20.30
2018-08-31T06:27:11.093Z,20.30
2018-08-31T06:27:42.980Z,20.30
2018-08-31T06:28:14.870Z,20.30
2018-08-31T06:28:46.686Z,20.30
2018-08-31T06:29:18.520Z,20.30
2018-08-31T06:29:50.365Z,20.30
2018-08-31T06:30:22.172Z,20.20
2018-08-31T06:30:54.073Z,20.30
2018-08-31T06:31:26.071Z,20.20
2018-08-31T06:31:57.952Z,20.20
2018-08-31T06:32:29.781Z,20.10
2018-08-31T06:33:01.605Z,20.10
2018-08-31T06:33:33.447Z,20.20
2018-08-31T06:34:05.282Z,20.10
2018-08-31T06:34:37.084Z,20.10
2018-08-31T06:35:08.885Z,20.20
2018-08-31T06:35:40.737Z,20.10
2018-08-31T06:36:12.574Z,20.20
2018-08-31T06:36:44.373Z,20.20
2018-08-31T06:37:16.201Z,20.20
2018-08-31T06:37:48.043Z,20.20
2018-08-31T06:38:19.839Z,20.20
2018-08-31T06:38:51.686Z,20.20
2018-08-31T06:39:23.584Z,20.20
2018-08-31T06:39:55.357Z,20.20
2018-08-31T06:40:27.155Z,20.30
2018-08-31T06:40:59.045Z,20.20
2018-08-31T06:41:30.902Z,20.10
2018-08-31T06:42:02.725Z,20.10
2018-08-31T06:42:34.547Z,20.00
2018-08-31T06:43:06.304Z,20.00
2018-08-31T06:43:38.125Z,20.00
2018-08-31T06:44:09.892Z,20.00
2018-08-31T06:44:41.795Z,20.00
2018-08-31T06:45:13.588Z,20.00
2018-08-31T06:45:45.432Z,20.00
2018-08-31T06:46:17.244Z,20.00
2018-08-31T06:46:49.113Z,20.00
2018-08-31T06:47:20.974Z,20.10
2018-08-31T06:47:52.809Z,20.10
2018-08-31T06:48:24.628Z,20.20
2018-08-31T06:48:56.461Z,20.20
2018-08-31T06:49:28.229Z,20.20
2018-08-31T06:50:00.143Z,20.20
2018-08-31T06:50:32.011Z,20.20
2018-08-31T06:51:03.790Z,20.20